createdAt,value
2023-03-22T00:01:24.776Z,71.75
2023-03-22T00:03:52.010Z,71.78
2023-03-22T00:06:18.960Z,71.70
2023-03-22T00:08:50.016Z,71.72
2023-03-22T00:11:17.088Z,71.84
2023-03-22T00:13:46.275Z,71.78
2023-03-22T00:16:16.881Z,71.78
2023-03-22T00:18:43.345Z,71.78
2023-03-22T00:21:16.737Z,71.76
2023-03-22T00:23:44.149Z,71.94
2023-03-22T00:26:13.417Z,71.98
2023-03-22T00:28:40.652Z,71.87
2023-03-22T00:31:08.115Z,71.87
2023-03-22T00:33:35.679Z,71.82
2023-03-22T00:36:08.865Z,71.87
2023-03-22T00:38:42.625Z,72.01
2023-03-22T00:41:15.329Z,71.88
2023-03-22T00:43:42.547Z,71.74
2023-03-22T00:46:11.003Z,71.79
2023-03-22T00:48:37.608Z,71.76
2023-03-22T00:51:04.976Z,71.75
2023-03-22T00:53:35.864Z,71.71
2023-03-22T00:56:03.822Z,71.69
2023-03-22T00:58:30.252Z,71.78
2023-03-22T01:00:56.930Z,71.86
2023-03-22T01:03:23.929Z,71.74
2023-03-22T01:05:54.774Z,71.67
2023-03-22T01:08:22.647Z,71.70
2023-03-22T01:10:49.756Z,71.75
2023-03-22T01:13:17.916Z,71.66
2023-03-22T01:15:47.056Z,71.83
2023-03-22T01:18:16.714Z,71.70
2023-03-22T01:20:43.189Z,71.66
2023-03-22T01:23:09.634Z,71.64
2023-03-22T01:25:36.377Z,71.81
2023-03-22T01:28:02.898Z,71.67
2023-03-22T01:30:29.664Z,71.95
2023-03-22T01:32:56.266Z,71.89
2023-03-22T01:35:22.908Z,71.69
2023-03-22T01:37:49.667Z,71.81
2023-03-22T01:40:16.637Z,71.85
2023-03-22T01:42:43.154Z,71.91
2023-03-22T01:45:12.515Z,71.78
2023-03-22T01:47:43.021Z,71.72
2023-03-22T01:50:09.786Z,71.86
2023-03-22T01:52:36.990Z,71.69
2023-03-22T01:55:05.729Z,71.85
2023-03-22T01:57:36.837Z,71.67
2023-03-22T02:00:12.644Z,71.79
2023-03-22T02:02:39.085Z,71.92
2023-03-22T02:05:05.865Z,71.83
2023-03-22T02:07:32.368Z,72.05
2023-03-22T02:09:59.154Z,71.90
2023-03-22T02:12:28.556Z,72.09
2023-03-22T02:15:24.336Z,72.16
2023-03-22T02:18:30.776Z,72.07
2023-03-22T02:21:56.046Z,72.01
2023-03-22T02:25:01.005Z,71.78
2023-03-22T02:27:34.961Z,72.04
2023-03-22T02:30:23.130Z,72.20
2023-03-22T02:32:52.390Z,71.92
2023-03-22T02:35:33.699Z,71.92
2023-03-22T02:38:32.295Z,71.92
2023-03-22T02:41:21.943Z,72.02
2023-03-22T02:43:48.314Z,71.84
2023-03-22T02:46:38.261Z,71.87
2023-03-22T02:49:35.213Z,72.02
2023-03-22T02:52:19.613Z,71.68
2023-03-22T02:54:54.490Z,71.72
2023-03-22T02:57:37.194Z,71.77
2023-03-22T03:00:10.911Z,71.85
2023-03-22T03:02:41.508Z,71.81
2023-03-22T03:05:10.275Z,71.95
2023-03-22T03:07:38.020Z,72.01
2023-03-22T03:10:05.965Z,71.97
2023-03-22T03:12:32.392Z,72.04
2023-03-22T03:14:58.888Z,72.20
2023-03-22T03:17:33.511Z,72.33
2023-03-22T03:20:18.587Z,72.15
2023-03-22T03:22:50.863Z,71.95
2023-03-22T03:25:30.693Z,72.38
2023-03-22T03:28:15.410Z,72.58
2023-03-22T03:30:55.828Z,72.40
2023-03-22T03:33:26.014Z,72.41
2023-03-22T03:36:00.459Z,72.64
2023-03-22T03:38:31.054Z,72.47
2023-03-22T03:41:01.574Z,72.57
2023-03-22T03:43:28.085Z,72.48
2023-03-22T03:45:55.263Z,72.45
2023-03-22T03:48:26.152Z,72.48
2023-03-22T03:50:53.661Z,72.61
2023-03-22T03:53:20.218Z,72.46
2023-03-22T03:55:46.715Z,72.62
2023-03-22T03:58:15.413Z,72.56
2023-03-22T04:00:42.546Z,72.64
2023-03-22T04:03:09.331Z,72.34
2023-03-22T04:05:36.284Z,72.70
2023-03-22T04:08:02.962Z,72.85
2023-03-22T04:10:29.656Z,72.70
2023-03-22T04:12:56.023Z,72.60
2023-03-22T04:15:23.530Z,72.41
2023-03-22T04:17:51.070Z,72.66
2023-03-22T04:20:17.822Z,72.48
2023-03-22T04:22:46.204Z,72.48
2023-03-22T04:25:13.745Z,72.61
2023-03-22T04:27:41.381Z,72.47
2023-03-22T04:30:11.759Z,72.25
2023-03-22T04:32:39.112Z,72.58
2023-03-22T04:35:05.932Z,72.82
2023-03-22T04:37:33.045Z,72.81
2023-03-22T04:39:59.978Z,72.73
2023-03-22T04:42:26.881Z,72.78
2023-03-22T04:44:53.508Z,73.08
2023-03-22T04:47:20.025Z,73.20
2023-03-22T04:49:47.492Z,73.08
2023-03-22T04:52:14.907Z,73.09
2023-03-22T04:54:41.806Z,73.08
2023-03-22T04:57:08.993Z,73.13
2023-03-22T04:59:35.386Z,73.31
2023-03-22T05:02:02.354Z,73.29
2023-03-22T05:04:28.889Z,73.25
2023-03-22T05:06:55.398Z,73.13
2023-03-22T05:09:23.505Z,73.37
2023-03-22T05:11:50.485Z,73.21
2023-03-22T05:14:16.926Z,73.40
2023-03-22T05:16:43.408Z,73.20
2023-03-22T05:19:15.651Z,73.39
2023-03-22T05:21:43.413Z,73.58
2023-03-22T05:24:10.655Z,73.48
2023-03-22T05:26:41.530Z,73.51
2023-03-22T05:29:10.335Z,73.42
2023-03-22T05:31:37.002Z,73.57
2023-03-22T05:34:03.922Z,73.51
2023-03-22T05:36:30.583Z,73.40
2023-03-22T05:39:04.066Z,73.57
2023-03-22T05:41:31.094Z,73.54
2023-03-22T05:43:57.555Z,73.68
2023-03-22T05:46:54.149Z,73.66
2023-03-22T05:49:21.703Z,73.69
2023-03-22T05:51:50.051Z,73.60
2023-03-22T05:54:16.550Z,73.75
2023-03-22T05:56:43.644Z,73.78
2023-03-22T05:59:10.302Z,73.92
2023-03-22T06:01:37.137Z,73.84
2023-03-22T06:04:04.021Z,73.65
2023-03-22T06:06:30.871Z,73.65
2023-03-22T06:09:07.303Z,73.64
2023-03-22T06:11:42.460Z,73.92
2023-03-22T06:14:09.506Z,73.86
2023-03-22T06:16:36.535Z,73.84
2023-03-22T06:19:03.055Z,73.75
2023-03-22T06:21:29.771Z,73.86
2023-03-22T06:23:56.344Z,73.69
2023-03-22T06:26:22.785Z,73.84
2023-03-22T06:28:50.436Z,73.92
2023-03-22T06:31:17.320Z,73.76
2023-03-22T06:33:44.881Z,73.74
2023-03-22T06:36:11.472Z,73.70
2023-03-22T06:38:38.080Z,73.85
2023-03-22T06:41:05.226Z,73.81
2023-03-22T06:43:32.123Z,73.96
2023-03-22T06:45:58.615Z,74.01
2023-03-22T06:48:28.640Z,74.05
2023-03-22T06:50:55.142Z,74.03
2023-03-22T06:53:21.994Z,74.00
2023-03-22T06:55:49.040Z,73.97
2023-03-22T06:58:22.983Z,73.71
2023-03-22T07:00:49.750Z,74.04
2023-03-22T07:03:19.665Z,73.96
2023-03-22T07:05:46.592Z,73.82
2023-03-22T07:08:13.527Z,73.95
2023-03-22T07:10:40.629Z,73.99
2023-03-22T07:13:07.217Z,74.04
2023-03-22T07:15:34.438Z,74.04
2023-03-22T07:18:02.203Z,73.99
2023-03-22T07:20:29.178Z,74.05
2023-03-22T07:22:55.680Z,74.15
2023-03-22T07:25:22.356Z,73.87
2023-03-22T07:27:48.918Z,73.91
2023-03-22T07:30:15.962Z,73.70
2023-03-22T07:32:42.841Z,73.87
2023-03-22T07:35:09.369Z,73.97
2023-03-22T07:37:35.844Z,73.76
2023-03-22T07:40:04.234Z,73.94
2023-03-22T07:42:31.422Z,73.91
2023-03-22T07:44:58.706Z,74.02
2023-03-22T07:47:40.030Z,73.86
2023-03-22T07:50:08.982Z,73.97
2023-03-22T07:52:36.444Z,74.17
2023-03-22T07:55:04.297Z,74.23
2023-03-22T07:57:30.955Z,74.16
2023-03-22T08:00:02.917Z,73.98
2023-03-22T08:02:30.597Z,73.97
2023-03-22T08:04:57.293Z,74.04
2023-03-22T08:07:24.601Z,74.08
2023-03-22T08:09:51.731Z,74.20
2023-03-22T08:12:18.824Z,73.91
2023-03-22T08:14:49.827Z,73.91
2023-03-22T08:17:17.533Z,73.82
2023-03-22T08:19:57.929Z,73.87
2023-03-22T08:22:29.063Z,73.89
2023-03-22T08:24:55.933Z,73.79
2023-03-22T08:27:22.337Z,73.62
2023-03-22T08:29:48.853Z,73.76
2023-03-22T08:32:16.270Z,73.82
2023-03-22T08:34:43.842Z,73.88
2023-03-22T08:37:12.064Z,73.79
2023-03-22T08:39:39.185Z,73.74
2023-03-22T08:42:05.711Z,73.68
2023-03-22T08:44:32.139Z,73.54
2023-03-22T08:46:58.938Z,73.64
2023-03-22T08:49:26.570Z,73.63
2023-03-22T08:51:53.383Z,73.64
2023-03-22T08:54:20.162Z,73.72
2023-03-22T08:56:47.645Z,73.65
2023-03-22T08:59:14.155Z,73.62
2023-03-22T09:01:40.730Z,73.49
2023-03-22T09:04:10.199Z,73.43
2023-03-22T09:06:38.096Z,73.34
2023-03-22T09:09:04.551Z,73.21
2023-03-22T09:11:30.980Z,73.22
2023-03-22T09:13:57.384Z,73.21
2023-03-22T09:16:24.021Z,73.13
2023-03-22T09:18:50.985Z,73.33
2023-03-22T09:21:17.901Z,73.23
2023-03-22T09:23:47.398Z,73.19
2023-03-22T09:26:14.475Z,73.09
2023-03-22T09:28:41.071Z,73.07
2023-03-22T09:31:09.871Z,73.04
2023-03-22T09:33:38.330Z,72.98
2023-03-22T09:36:05.946Z,73.15
2023-03-22T09:38:35.816Z,73.13
2023-03-22T09:41:06.815Z,73.15
2023-03-22T09:43:37.311Z,73.09
2023-03-22T09:46:10.207Z,73.21
2023-03-22T09:48:40.242Z,73.09
2023-03-22T09:51:18.775Z,73.27
2023-03-22T09:53:45.251Z,73.12
2023-03-22T09:56:22.432Z,73.10
2023-03-22T09:59:10.662Z,73.05
2023-03-22T10:01:48.001Z,73.03
2023-03-22T10:04:35.724Z,72.92
2023-03-22T10:07:20.715Z,72.88
2023-03-22T10:10:12.031Z,72.95
2023-03-22T10:12:53.152Z,72.77
2023-03-22T10:15:28.168Z,72.71
2023-03-22T10:17:57.526Z,72.88
2023-03-22T10:20:33.711Z,72.84
2023-03-22T10:23:03.408Z,72.82
2023-03-22T10:25:39.463Z,72.61
2023-03-22T10:28:16.903Z,72.61
2023-03-22T10:30:50.371Z,72.51
2023-03-22T10:33:36.420Z,72.47
2023-03-22T10:36:05.549Z,72.38
2023-03-22T10:38:36.886Z,72.40
2023-03-22T10:41:04.878Z,72.37
2023-03-22T10:43:40.715Z,72.10
2023-03-22T10:46:14.948Z,71.96
2023-03-22T10:48:45.071Z,72.04
2023-03-22T10:51:22.599Z,71.89
2023-03-22T10:53:53.145Z,71.81
2023-03-22T10:56:20.609Z,71.99
2023-03-22T10:58:49.094Z,71.91
2023-03-22T11:01:25.122Z,71.78
2023-03-22T11:03:56.759Z,72.02
2023-03-22T11:06:26.594Z,71.87
2023-03-22T11:08:57.773Z,71.77
2023-03-22T11:11:36.039Z,71.67
2023-03-22T11:14:07.732Z,71.58
2023-03-22T11:16:51.995Z,71.41
2023-03-22T11:19:23.143Z,71.37
2023-03-22T11:21:50.982Z,71.39
2023-03-22T11:24:18.375Z,71.56
2023-03-22T11:27:20.908Z,71.25
2023-03-22T11:29:53.372Z,71.29
2023-03-22T11:32:29.526Z,71.17
2023-03-22T11:35:04.783Z,71.02
2023-03-22T11:37:31.223Z,70.83
2023-03-22T11:40:01.288Z,70.71
2023-03-22T11:42:28.480Z,70.52
2023-03-22T11:44:56.574Z,70.22
2023-03-22T11:47:26.511Z,70.46
2023-03-22T11:49:56.607Z,70.19
2023-03-22T11:52:26.218Z,70.29
2023-03-22T11:54:54.639Z,67.72
2023-03-22T11:57:25.795Z,67.54
2023-03-22T12:00:17.581Z,68.53
2023-03-22T12:02:55.120Z,69.40
2023-03-22T12:05:26.675Z,69.53
2023-03-22T12:08:16.705Z,69.31
2023-03-22T12:10:50.477Z,69.25
2023-03-22T12:14:02.486Z,69.53
2023-03-22T12:16:36.160Z,69.45
2023-03-22T12:19:50.873Z,68.97
2023-03-22T12:22:20.698Z,68.82
2023-03-22T12:24:47.618Z,69.18
2023-03-22T12:27:24.083Z,69.15
2023-03-22T12:29:59.357Z,68.98
2023-03-22T12:32:35.554Z,68.73
2023-03-22T12:35:16.651Z,68.44
2023-03-22T12:37:57.604Z,68.87
2023-03-22T12:40:33.769Z,68.88
2023-03-22T12:43:06.054Z,68.56
2023-03-22T12:45:40.092Z,68.48
2023-03-22T12:48:13.993Z,68.46
2023-03-22T12:50:56.780Z,68.15
2023-03-22T12:53:30.546Z,67.82
2023-03-22T12:55:59.283Z,67.74
2023-03-22T12:58:26.768Z,66.50
2023-03-22T13:00:58.005Z,67.38
2023-03-22T13:03:36.443Z,66.98
2023-03-22T13:06:32.539Z,67.08
2023-03-22T13:09:01.974Z,67.36
2023-03-22T13:11:28.457Z,67.11
2023-03-22T13:13:55.384Z,67.26
2023-03-22T13:16:40.428Z,66.72
2023-03-22T13:19:26.105Z,66.78
2023-03-22T13:22:14.200Z,66.67
2023-03-22T13:25:04.068Z,66.83
2023-03-22T13:27:53.335Z,66.77
2023-03-22T13:30:21.076Z,66.62
2023-03-22T13:32:53.861Z,66.48
2023-03-22T13:35:27.330Z,66.49
2023-03-22T13:38:02.253Z,66.47
2023-03-22T13:40:37.466Z,66.37
2023-03-22T13:43:22.996Z,66.51
2023-03-22T13:46:17.060Z,66.48
2023-03-22T13:48:46.860Z,66.22
2023-03-22T13:51:16.897Z,66.33
2023-03-22T13:54:04.244Z,66.24
2023-03-22T13:57:01.922Z,66.07
2023-03-22T14:00:14.790Z,65.94
2023-03-22T14:02:51.595Z,66.29
2023-03-22T14:05:26.149Z,66.07
2023-03-22T14:07:59.656Z,66.00
2023-03-22T14:10:47.386Z,66.02
2023-03-22T14:13:54.529Z,65.89
2023-03-22T14:17:02.476Z,65.84
2023-03-22T14:19:38.992Z,65.58
